Air Navigation Services of Czech Republic
Airport: LKPD Updated:  28.01.2021 01:31:26  UTC
 METAR LKPD 28.01. 01:30 RRA
METAR LKPD 280130Z 16002KT 9999 -SN OVC025 M02/M04 Q1011 RMK BLACK=
 TAF LKPD 27.01. 23:00 ...
TAF LKPD 272300Z 2800/2900 21005KT 9999 BKN025      TEMPO 2804/2810 4000 SN BKN013      BECMG 2815/2817 5000 RASN BKN012 OVC020      TEMPO 2817/2900 2000 SNRA BKN005=